createdAt,value
2022-10-20T00:02:22.679Z,1.63
2022-10-20T00:05:08.622Z,1.60
2022-10-20T00:07:54.229Z,1.87
2022-10-20T00:10:39.632Z,1.93
2022-10-20T00:13:25.635Z,2.03
2022-10-20T00:16:12.227Z,2.13
2022-10-20T00:19:01.146Z,1.80
2022-10-20T00:21:46.344Z,1.90
2022-10-20T00:24:31.789Z,2.07
2022-10-20T00:27:17.376Z,2.30
2022-10-20T00:30:02.781Z,1.80
2022-10-20T00:32:50.661Z,1.97
2022-10-20T00:35:39.413Z,2.40
2022-10-20T00:38:27.227Z,1.90
2022-10-20T00:41:20.530Z,1.53
2022-10-20T00:44:43.454Z,2.40
2022-10-20T00:47:53.948Z,1.90
2022-10-20T00:50:47.747Z,1.73
2022-10-20T00:53:35.815Z,2.00
2022-10-20T00:56:22.315Z,2.10
2022-10-20T00:59:08.521Z,2.10
2022-10-20T01:01:57.872Z,1.87
2022-10-20T01:04:43.843Z,1.70
2022-10-20T01:07:31.131Z,1.87
2022-10-20T01:10:17.667Z,2.07
2022-10-20T01:13:21.534Z,1.83
2022-10-20T01:16:06.898Z,1.77
2022-10-20T01:19:33.829Z,2.40
2022-10-20T01:22:37.822Z,1.67
2022-10-20T01:25:50.528Z,1.60
2022-10-20T01:29:05.145Z,2.00
2022-10-20T01:32:03.670Z,1.50
2022-10-20T01:34:59.731Z,1.80
2022-10-20T01:38:04.402Z,1.97
2022-10-20T01:41:15.543Z,1.77
2022-10-20T01:44:08.390Z,1.80
2022-10-20T01:46:54.894Z,2.00
2022-10-20T01:49:44.480Z,1.63
2022-10-20T01:52:30.342Z,1.73
2022-10-20T01:55:18.294Z,1.83
2022-10-20T01:58:36.720Z,1.70
2022-10-20T02:01:28.849Z,1.63
2022-10-20T02:04:15.000Z,2.20
2022-10-20T02:07:15.599Z,2.20
2022-10-20T02:10:12.669Z,2.20
2022-10-20T02:13:02.658Z,2.07
2022-10-20T02:15:55.684Z,1.97
2022-10-20T02:18:43.574Z,1.50
2022-10-20T02:21:31.738Z,1.50
2022-10-20T02:24:18.702Z,1.33
2022-10-20T02:27:16.871Z,1.80
2022-10-20T02:30:09.794Z,1.80
2022-10-20T02:32:55.082Z,1.83
2022-10-20T02:35:48.422Z,1.60
2022-10-20T02:38:36.204Z,1.77
2022-10-20T02:41:21.769Z,1.53
2022-10-20T02:44:09.457Z,1.70
2022-10-20T02:46:55.009Z,1.60
2022-10-20T02:49:40.530Z,1.77
2022-10-20T02:52:29.064Z,1.77
2022-10-20T02:55:14.734Z,2.13
2022-10-20T02:58:02.608Z,1.60
2022-10-20T03:00:50.422Z,1.57
2022-10-20T03:03:35.770Z,1.43
2022-10-20T03:06:24.230Z,1.70
2022-10-20T03:09:09.418Z,2.13
2022-10-20T03:11:57.766Z,1.30
2022-10-20T03:14:43.155Z,1.90
2022-10-20T03:17:28.798Z,1.50
2022-10-20T03:20:18.789Z,2.10
2022-10-20T03:23:04.093Z,1.50
2022-10-20T03:25:50.002Z,1.93
2022-10-20T03:28:38.559Z,1.83
2022-10-20T03:31:26.029Z,2.00
2022-10-20T03:34:12.742Z,1.70
2022-10-20T03:37:00.817Z,1.93
2022-10-20T03:39:48.294Z,1.60
2022-10-20T03:42:33.594Z,1.70
2022-10-20T03:45:19.651Z,1.93
2022-10-20T03:48:05.567Z,1.67
2022-10-20T03:50:52.847Z,1.90
2022-10-20T03:53:38.215Z,1.70
2022-10-20T03:56:25.968Z,1.90
2022-10-20T03:59:13.863Z,2.77
2022-10-20T04:02:01.910Z,2.40
2022-10-20T04:04:47.622Z,2.07
2022-10-20T04:07:35.283Z,2.00
2022-10-20T04:10:21.632Z,1.90
2022-10-20T04:13:09.205Z,1.53
2022-10-20T04:15:55.069Z,1.73
2022-10-20T04:18:43.272Z,2.27
2022-10-20T04:21:28.480Z,2.70
2022-10-20T04:24:13.994Z,1.97
2022-10-20T04:26:59.883Z,2.70
2022-10-20T04:29:47.152Z,2.30
2022-10-20T04:32:32.675Z,2.47
2022-10-20T04:35:20.639Z,2.10
2022-10-20T04:38:09.707Z,2.07
2022-10-20T04:41:01.887Z,2.07
2022-10-20T04:43:53.960Z,2.10
2022-10-20T04:46:45.218Z,2.60
2022-10-20T04:49:30.491Z,2.20
2022-10-20T04:52:18.010Z,2.60
2022-10-20T04:55:08.694Z,2.33
2022-10-20T04:57:54.294Z,2.40
2022-10-20T05:00:41.789Z,2.70
2022-10-20T05:03:30.599Z,2.80
2022-10-20T05:06:22.368Z,2.60
2022-10-20T05:09:08.000Z,2.37
2022-10-20T05:11:55.774Z,2.70
2022-10-20T05:14:40.895Z,2.07
2022-10-20T05:17:31.241Z,2.73
2022-10-20T05:20:16.666Z,2.90
2022-10-20T05:23:02.162Z,2.70
2022-10-20T05:25:47.851Z,2.57
2022-10-20T05:28:33.197Z,3.17
2022-10-20T05:31:21.464Z,2.23
2022-10-20T05:34:09.562Z,2.40
2022-10-20T05:36:54.966Z,2.33
2022-10-20T05:39:40.181Z,2.60
2022-10-20T05:42:25.683Z,2.70
2022-10-20T05:45:11.300Z,2.73
2022-10-20T05:47:56.732Z,3.30
2022-10-20T05:50:41.991Z,3.10
2022-10-20T05:53:27.514Z,3.30
2022-10-20T05:56:17.521Z,3.17
2022-10-20T05:59:03.364Z,3.07
2022-10-20T06:01:49.025Z,3.00
2022-10-20T06:04:34.872Z,3.23
2022-10-20T06:07:22.906Z,3.40
2022-10-20T06:10:08.567Z,3.77
2022-10-20T06:12:56.022Z,3.10
2022-10-20T06:15:47.519Z,2.90
2022-10-20T06:18:33.472Z,4.87
2022-10-20T06:21:24.052Z,3.30
2022-10-20T06:24:10.680Z,3.70
2022-10-20T06:26:56.592Z,4.20
2022-10-20T06:29:41.746Z,3.80
2022-10-20T06:32:27.411Z,5.23
2022-10-20T06:35:13.028Z,3.70
2022-10-20T06:37:59.592Z,4.20
2022-10-20T06:40:44.977Z,3.63
2022-10-20T06:43:30.907Z,3.50
2022-10-20T06:46:18.612Z,3.80
2022-10-20T06:49:08.901Z,3.27
2022-10-20T06:51:54.684Z,4.57
2022-10-20T06:54:40.101Z,3.07
2022-10-20T06:57:28.015Z,3.60
2022-10-20T07:00:16.543Z,3.23
2022-10-20T07:03:03.257Z,4.17
2022-10-20T07:05:49.311Z,4.27
2022-10-20T07:08:36.421Z,3.80
2022-10-20T07:11:25.015Z,3.90
2022-10-20T07:14:13.550Z,4.20
2022-10-20T07:16:59.918Z,3.47
2022-10-20T07:19:45.133Z,3.87
2022-10-20T07:22:30.757Z,4.13
2022-10-20T07:25:22.453Z,3.40
2022-10-20T07:28:10.623Z,3.43
2022-10-20T07:30:55.904Z,3.07
2022-10-20T07:33:41.914Z,3.73
2022-10-20T07:36:35.645Z,4.40
2022-10-20T07:39:21.875Z,3.40
2022-10-20T07:42:07.022Z,4.00
2022-10-20T07:44:52.556Z,4.00
2022-10-20T07:47:39.610Z,3.80
2022-10-20T07:50:26.920Z,3.53
2022-10-20T07:53:14.709Z,4.23
2022-10-20T07:56:01.406Z,4.03
2022-10-20T07:58:50.458Z,3.90
2022-10-20T08:01:36.275Z,3.30
2022-10-20T08:04:22.263Z,3.80
2022-10-20T08:07:07.547Z,4.70
2022-10-20T08:09:56.425Z,3.60
2022-10-20T08:12:41.789Z,3.30
2022-10-20T08:15:27.561Z,3.97
2022-10-20T08:18:22.189Z,4.03
2022-10-20T08:21:17.850Z,3.63
2022-10-20T08:24:05.512Z,3.43
2022-10-20T08:26:50.698Z,3.30
2022-10-20T08:29:39.015Z,3.50
2022-10-20T08:32:24.827Z,3.20
2022-10-20T08:35:10.641Z,3.20
2022-10-20T08:37:55.926Z,2.80
2022-10-20T08:40:43.970Z,2.63
2022-10-20T08:43:31.645Z,3.70
2022-10-20T08:46:21.065Z,3.30
2022-10-20T08:49:20.027Z,3.10
2022-10-20T08:52:15.484Z,3.20
2022-10-20T08:55:05.462Z,3.10
2022-10-20T08:57:50.922Z,2.70
2022-10-20T09:00:39.204Z,3.13
2022-10-20T09:03:30.575Z,2.80
2022-10-20T09:06:16.978Z,3.47
2022-10-20T09:09:02.614Z,3.60
2022-10-20T09:11:49.251Z,3.30
2022-10-20T09:14:41.294Z,3.10
2022-10-20T09:17:26.696Z,3.03
2022-10-20T09:20:25.991Z,3.17
2022-10-20T09:23:39.884Z,3.23
2022-10-20T09:26:58.115Z,2.90
2022-10-20T09:29:45.561Z,2.80
2022-10-20T09:32:51.638Z,3.10
2022-10-20T09:35:39.490Z,3.13
2022-10-20T09:38:35.614Z,3.13
2022-10-20T09:41:25.246Z,3.23
2022-10-20T09:44:17.232Z,3.20
2022-10-20T09:47:05.580Z,2.90
2022-10-20T09:50:01.506Z,2.70
2022-10-20T09:52:48.017Z,2.77
2022-10-20T09:55:42.279Z,3.03
2022-10-20T09:58:42.117Z,2.70
2022-10-20T10:01:28.263Z,2.70
2022-10-20T10:04:31.725Z,2.67
2022-10-20T10:07:28.915Z,2.93
2022-10-20T10:10:19.235Z,3.07
2022-10-20T10:16:08.865Z,2.70
2022-10-20T10:19:04.834Z,2.97
2022-10-20T10:21:59.110Z,2.60
2022-10-20T10:24:49.676Z,2.70
2022-10-20T10:27:36.648Z,2.30
2022-10-20T10:30:30.138Z,2.50
2022-10-20T10:33:27.986Z,2.10
2022-10-20T10:36:34.753Z,2.40
2022-10-20T10:39:20.612Z,2.30
2022-10-20T10:42:34.702Z,1.97
2022-10-20T10:46:20.429Z,1.50
2022-10-20T10:49:25.216Z,1.53
2022-10-20T10:52:14.072Z,1.40
2022-10-20T10:55:47.074Z,2.10
2022-10-20T10:58:51.730Z,1.57
2022-10-20T11:02:04.722Z,2.00
2022-10-20T11:04:53.092Z,1.53
2022-10-20T11:08:04.980Z,1.90
2022-10-20T11:11:09.232Z,1.80
2022-10-20T11:17:10.780Z,1.90
2022-10-20T11:20:33.727Z,2.27
2022-10-20T11:26:39.410Z,1.20
2022-10-20T11:29:33.073Z,1.67
2022-10-20T11:32:39.589Z,1.43
2022-10-20T11:36:00.587Z,1.90
2022-10-20T11:39:06.677Z,1.50
2022-10-20T11:41:59.613Z,1.57
2022-10-20T11:44:47.088Z,1.30
2022-10-20T11:47:41.296Z,1.43
2022-10-20T11:50:30.693Z,1.90
2022-10-20T11:53:24.801Z,1.23
2022-10-20T11:56:15.911Z,1.50
2022-10-20T11:59:17.307Z,1.20
2022-10-20T12:02:23.001Z,1.30
2022-10-20T12:05:40.517Z,1.60
2022-10-20T12:08:37.508Z,1.10
2022-10-20T12:11:50.241Z,1.30
2022-10-20T12:14:46.534Z,1.13
2022-10-20T12:17:42.136Z,1.10
2022-10-20T12:20:27.495Z,1.47
2022-10-20T12:23:49.478Z,1.43
2022-10-20T12:26:42.444Z,1.43
2022-10-20T12:29:30.675Z,1.60
2022-10-20T12:32:24.264Z,1.73
2022-10-20T12:35:09.743Z,1.57
2022-10-20T12:38:05.466Z,1.60
2022-10-20T12:40:57.749Z,1.93
2022-10-20T12:43:53.061Z,1.10
2022-10-20T12:46:43.592Z,1.30
2022-10-20T12:49:34.595Z,1.50
2022-10-20T12:52:24.362Z,1.07
2022-10-20T12:55:31.644Z,1.10
2022-10-20T12:58:17.092Z,1.30
2022-10-20T13:01:05.943Z,1.80
2022-10-20T13:03:52.730Z,1.33
2022-10-20T13:06:40.970Z,1.20
2022-10-20T13:09:30.455Z,1.37
2022-10-20T13:12:30.691Z,1.50
2022-10-20T13:15:19.767Z,1.23
2022-10-20T13:18:11.739Z,1.43
2022-10-20T13:21:31.979Z,1.60
2022-10-20T13:24:37.401Z,1.40
2022-10-20T13:27:28.921Z,1.30
2022-10-20T13:30:21.455Z,1.43
2022-10-20T13:34:02.542Z,1.50
2022-10-20T13:37:07.268Z,1.33
2022-10-20T13:39:58.819Z,1.63
2022-10-20T13:43:27.301Z,1.80
2022-10-20T13:46:35.041Z,1.80
2022-10-20T13:49:52.904Z,1.43
2022-10-20T13:52:42.637Z,1.83
2022-10-20T13:55:50.272Z,1.93
2022-10-20T13:58:38.314Z,1.67
2022-10-20T14:01:24.884Z,2.23
2022-10-20T14:04:39.722Z,1.73
2022-10-20T14:07:25.575Z,1.33
2022-10-20T14:10:24.382Z,1.63
2022-10-20T14:13:17.016Z,2.03
2022-10-20T14:16:12.226Z,1.70
2022-10-20T14:19:09.127Z,1.60
2022-10-20T14:21:57.933Z,1.97
2022-10-20T14:24:46.277Z,1.70
2022-10-20T14:27:35.635Z,1.80
2022-10-20T14:30:24.697Z,1.50
2022-10-20T14:33:16.036Z,1.43
2022-10-20T14:36:02.769Z,1.43
2022-10-20T14:38:52.631Z,1.67
2022-10-20T14:41:37.989Z,1.57
2022-10-20T14:44:31.537Z,1.70
2022-10-20T14:47:18.741Z,1.40
2022-10-20T14:50:06.097Z,1.63
2022-10-20T14:52:54.503Z,1.33
2022-10-20T14:55:40.179Z,1.80
2022-10-20T14:58:38.991Z,1.87
2022-10-20T15:01:29.103Z,1.33
2022-10-20T15:04:29.975Z,1.43
2022-10-20T15:07:33.525Z,1.67
2022-10-20T15:10:24.472Z,1.37
2022-10-20T15:13:25.027Z,1.90
2022-10-20T15:16:32.945Z,1.90
2022-10-20T15:19:47.682Z,1.53
2022-10-20T15:22:33.444Z,2.60
2022-10-20T15:25:19.002Z,1.90
2022-10-20T15:28:05.399Z,1.60
2022-10-20T15:30:50.998Z,1.53
2022-10-20T15:33:36.649Z,2.13
2022-10-20T15:36:32.973Z,2.07
2022-10-20T15:39:18.779Z,1.83
2022-10-20T15:42:10.960Z,2.70
2022-10-20T15:45:02.517Z,2.30
2022-10-20T15:47:48.153Z,2.30
2022-10-20T15:50:33.717Z,2.10
2022-10-20T15:53:21.634Z,1.90
2022-10-20T15:56:08.270Z,1.90
2022-10-20T15:58:54.550Z,1.80
2022-10-20T16:01:42.410Z,1.90
2022-10-20T16:04:27.986Z,2.37
2022-10-20T16:07:15.638Z,2.63
2022-10-20T16:10:03.846Z,2.33
2022-10-20T16:12:50.142Z,2.33
2022-10-20T16:15:35.969Z,2.13
2022-10-20T16:18:21.541Z,2.87
2022-10-20T16:21:07.917Z,2.53
2022-10-20T16:23:53.180Z,2.70
2022-10-20T16:26:41.366Z,2.67
2022-10-20T16:29:27.009Z,2.10
2022-10-20T16:32:12.658Z,3.00
2022-10-20T16:35:00.786Z,2.90
2022-10-20T16:37:46.670Z,2.43
2022-10-20T16:40:32.594Z,3.00
2022-10-20T16:43:18.530Z,2.57
2022-10-20T16:46:06.308Z,2.80
2022-10-20T16:48:57.338Z,2.77
2022-10-20T16:51:43.154Z,3.30
2022-10-20T16:54:28.893Z,2.57
2022-10-20T16:57:15.185Z,2.60
2022-10-20T17:00:00.855Z,2.77
2022-10-20T17:02:48.802Z,3.23
2022-10-20T17:05:34.308Z,3.27
2022-10-20T17:08:19.915Z,3.83
2022-10-20T17:11:10.835Z,2.70
2022-10-20T17:13:57.813Z,2.63
2022-10-20T17:16:47.312Z,3.33
2022-10-20T17:19:35.709Z,2.87
2022-10-20T17:22:21.166Z,2.80
2022-10-20T17:25:07.466Z,3.47
2022-10-20T17:27:53.342Z,3.30
2022-10-20T17:30:46.044Z,3.10
2022-10-20T17:33:34.628Z,2.87
2022-10-20T17:36:26.156Z,2.90
2022-10-20T17:39:17.521Z,3.40
2022-10-20T17:42:05.258Z,2.90
2022-10-20T17:44:50.660Z,2.77
2022-10-20T17:47:38.298Z,3.07
2022-10-20T17:50:27.327Z,2.70
2022-10-20T17:53:12.489Z,2.97
2022-10-20T17:56:06.381Z,3.90
2022-10-20T17:58:52.382Z,3.60
2022-10-20T18:01:42.875Z,3.13
2022-10-20T18:04:28.194Z,3.10
2022-10-20T18:07:18.324Z,3.20
2022-10-20T18:10:06.226Z,3.47
2022-10-20T18:12:51.484Z,3.07
2022-10-20T18:15:42.204Z,3.30
2022-10-20T18:18:27.611Z,3.17
2022-10-20T18:21:15.709Z,2.83
2022-10-20T18:24:04.192Z,3.77
2022-10-20T18:26:49.715Z,3.23
2022-10-20T18:29:35.245Z,2.83
2022-10-20T18:32:21.098Z,3.43
2022-10-20T18:35:09.908Z,3.20
2022-10-20T18:37:58.200Z,3.33
2022-10-20T18:40:43.833Z,2.73
2022-10-20T18:43:29.482Z,3.60
2022-10-20T18:46:17.102Z,2.87
2022-10-20T18:49:05.752Z,3.40
2022-10-20T18:51:51.303Z,3.47
2022-10-20T18:54:39.542Z,3.00
2022-10-20T18:57:27.044Z,3.00
2022-10-20T19:00:17.232Z,3.37
2022-10-20T19:03:07.734Z,3.33
2022-10-20T19:05:58.924Z,3.03
2022-10-20T19:08:45.209Z,2.73
2022-10-20T19:11:33.071Z,2.80
2022-10-20T19:14:18.487Z,2.87
2022-10-20T19:17:04.137Z,2.97
2022-10-20T19:19:50.375Z,2.73
2022-10-20T19:22:36.023Z,2.77
2022-10-20T19:25:25.743Z,3.20
2022-10-20T19:28:12.713Z,2.77
2022-10-20T19:30:58.298Z,2.63
2022-10-20T19:33:43.756Z,3.90
2022-10-20T19:36:31.836Z,2.43
2022-10-20T19:39:25.135Z,3.03
2022-10-20T19:42:15.223Z,2.77
2022-10-20T19:45:08.513Z,2.87
2022-10-20T19:47:54.024Z,3.10
2022-10-20T19:50:39.782Z,3.40
2022-10-20T19:53:25.848Z,3.40
2022-10-20T19:56:11.248Z,3.43
2022-10-20T19:58:56.869Z,2.77
2022-10-20T20:01:42.162Z,3.40
2022-10-20T20:04:33.754Z,3.73
2022-10-20T20:07:20.148Z,3.27
2022-10-20T20:10:06.123Z,3.07
2022-10-20T20:12:51.521Z,3.10
2022-10-20T20:15:37.123Z,2.90
2022-10-20T20:18:22.481Z,3.10
2022-10-20T20:21:11.149Z,3.30
2022-10-20T20:24:00.210Z,2.90
2022-10-20T20:26:47.083Z,3.20
2022-10-20T20:29:35.512Z,3.00
2022-10-20T20:32:20.682Z,3.70
2022-10-20T20:35:07.038Z,3.53
2022-10-20T20:37:52.911Z,3.60
2022-10-20T20:40:46.474Z,3.33
2022-10-20T20:43:34.721Z,2.73
2022-10-20T20:46:24.956Z,4.00
2022-10-20T20:49:12.861Z,4.17
2022-10-20T20:51:58.579Z,3.97
2022-10-20T20:54:44.138Z,3.13
2022-10-20T20:57:29.466Z,3.27
2022-10-20T21:00:17.412Z,2.73
2022-10-20T21:03:03.429Z,3.67
2022-10-20T21:05:49.298Z,3.30
2022-10-20T21:08:38.693Z,3.03
2022-10-20T21:11:29.802Z,3.00
2022-10-20T21:14:15.616Z,3.00
2022-10-20T21:17:01.342Z,3.60
2022-10-20T21:19:46.962Z,3.40
2022-10-20T21:22:32.575Z,2.60
2022-10-20T21:25:25.755Z,3.47
2022-10-20T21:28:11.333Z,2.83
2022-10-20T21:31:00.163Z,2.60
2022-10-20T21:33:50.566Z,3.00
2022-10-20T21:36:37.746Z,3.00
2022-10-20T21:39:25.786Z,2.70
2022-10-20T21:42:11.530Z,3.30
2022-10-20T21:44:56.968Z,2.80
2022-10-20T21:47:43.808Z,2.80
2022-10-20T21:50:35.489Z,3.10
2022-10-20T21:53:20.769Z,2.90
2022-10-20T21:56:07.590Z,3.13
2022-10-20T21:58:53.806Z,2.77
2022-10-20T22:01:39.320Z,3.23
2022-10-20T22:04:27.074Z,3.10
2022-10-20T22:07:12.743Z,3.30
2022-10-20T22:10:00.215Z,3.17
2022-10-20T22:12:46.629Z,3.00
2022-10-20T22:15:40.634Z,3.10
2022-10-20T22:18:26.264Z,3.30
2022-10-20T22:21:15.072Z,3.40
2022-10-20T22:24:00.927Z,3.40
2022-10-20T22:26:47.138Z,2.90
2022-10-20T22:29:37.097Z,3.10
2022-10-20T22:32:22.491Z,3.40
2022-10-20T22:35:17.396Z,2.70
2022-10-20T22:38:03.447Z,3.10
2022-10-20T22:40:50.857Z,3.40
2022-10-20T22:43:36.312Z,3.60
2022-10-20T22:46:21.884Z,3.13
2022-10-20T22:49:10.201Z,5.40
2022-10-20T22:51:55.667Z,2.87
2022-10-20T22:54:40.982Z,2.90
2022-10-20T22:57:28.862Z,3.40
2022-10-20T23:00:15.034Z,3.37
2022-10-20T23:03:02.433Z,3.80
2022-10-20T23:05:48.164Z,3.40
2022-10-20T23:08:43.158Z,3.67
2022-10-20T23:11:31.838Z,3.07
2022-10-20T23:14:17.915Z,3.50
2022-10-20T23:17:05.926Z,3.20
2022-10-20T23:19:51.304Z,3.37
2022-10-20T23:22:36.601Z,3.93
2022-10-20T23:25:22.414Z,4.00
2022-10-20T23:28:08.168Z,3.23
2022-10-20T23:30:55.530Z,3.57
2022-10-20T23:33:44.298Z,3.40
2022-10-20T23:36:30.106Z,4.03
2022-10-20T23:39:17.674Z,3.50
2022-10-20T23:42:07.194Z,3.60
2022-10-20T23:44:52.952Z,3.57
2022-10-20T23:47:38.490Z,3.80
2022-10-20T23:50:25.917Z,3.77
2022-10-20T23:53:11.979Z,3.27
2022-10-20T23:55:57.655Z,3.60
2022-10-20T23:58:45.455Z,3.60
